sensor_id;sensor_type;location;lat;lon;timestamp;pressure;altitude;pressure_sealevel;temperature;humidity
53715;BME280;39608;55.630;37.864;2023-03-12T00:03:53;97258.66;;;2.89;71.07
53715;BME280;39608;55.630;37.864;2023-03-12T00:08:56;97244.97;;;2.90;70.93
53715;BME280;39608;55.630;37.864;2023-03-12T00:13:58;97234.16;;;2.96;70.89
53715;BME280;39608;55.630;37.864;2023-03-12T00:19:02;97228.25;;;3.07;70.91
53715;BME280;39608;55.630;37.864;2023-03-12T00:24:05;97206.06;;;3.07;70.63
53715;BME280;39608;55.630;37.864;2023-03-12T00:29:07;97208.03;;;3.15;70.63
53715;BME280;39608;55.630;37.864;2023-03-12T00:34:11;97190.91;;;3.25;71.07
53715;BME280;39608;55.630;37.864;2023-03-12T00:39:12;97178.19;;;3.31;71.88
53715;BME280;39608;55.630;37.864;2023-03-12T00:44:14;97161.69;;;3.37;71.69
53715;BME280;39608;55.630;37.864;2023-03-12T00:49:18;97146.16;;;3.48;71.45
53715;BME280;39608;55.630;37.864;2023-03-12T00:54:20;97141.28;;;3.50;71.74
53715;BME280;39608;55.630;37.864;2023-03-12T00:59:22;97132.50;;;3.58;71.26
53715;BME280;39608;55.630;37.864;2023-03-12T01:04:25;97123.41;;;3.68;71.86
53715;BME280;39608;55.630;37.864;2023-03-12T01:09:27;97112.06;;;3.71;72.08
53715;BME280;39608;55.630;37.864;2023-03-12T01:14:29;97111.00;;;3.81;71.45
53715;BME280;39608;55.630;37.864;2023-03-12T01:19:33;97105.34;;;3.91;71.50
53715;BME280;39608;55.630;37.864;2023-03-12T01:24:35;97099.06;;;3.96;72.34
53715;BME280;39608;55.630;37.864;2023-03-12T01:29:37;97086.91;;;3.99;71.66
53715;BME280;39608;55.630;37.864;2023-03-12T01:34:41;97075.09;;;4.08;71.94
53715;BME280;39608;55.630;37.864;2023-03-12T01:39:43;97075.91;;;4.09;72.01
53715;BME280;39608;55.630;37.864;2023-03-12T01:44:53;97070.22;;;4.19;71.76
53715;BME280;39608;55.630;37.864;2023-03-12T01:50:00;97053.03;;;4.20;71.86
53715;BME280;39608;55.630;37.864;2023-03-12T01:55:06;97033.78;;;4.18;71.94
53715;BME280;39608;55.630;37.864;2023-03-12T02:00:13;97044.69;;;4.31;72.84
53715;BME280;39608;55.630;37.864;2023-03-12T02:05:23;97018.66;;;4.40;72.06
53715;BME280;39608;55.630;37.864;2023-03-12T02:10:26;97020.06;;;4.37;71.91
53715;BME280;39608;55.630;37.864;2023-03-12T02:15:28;97008.88;;;4.44;72.35
53715;BME280;39608;55.630;37.864;2023-03-12T02:20:36;96982.81;;;4.44;72.46
53715;BME280;39608;55.630;37.864;2023-03-12T02:25:43;96973.34;;;4.47;72.57
53715;BME280;39608;55.630;37.864;2023-03-12T02:30:51;96969.38;;;4.53;72.26
53715;BME280;39608;55.630;37.864;2023-03-12T02:35:54;96975.31;;;4.85;70.07
53715;BME280;39608;55.630;37.864;2023-03-12T02:40:59;96966.22;;;4.69;71.48
53715;BME280;39608;55.630;37.864;2023-03-12T02:46:03;96953.41;;;4.66;71.72
53715;BME280;39608;55.630;37.864;2023-03-12T02:51:05;96944.09;;;4.63;72.89
53715;BME280;39608;55.630;37.864;2023-03-12T02:56:08;96933.69;;;4.70;72.88
53715;BME280;39608;55.630;37.864;2023-03-12T03:01:10;96928.00;;;4.72;72.35
53715;BME280;39608;55.630;37.864;2023-03-12T03:06:13;96912.81;;;4.76;72.31
53715;BME280;39608;55.630;37.864;2023-03-12T03:11:16;96903.16;;;4.84;72.36
53715;BME280;39608;55.630;37.864;2023-03-12T03:16:19;96891.81;;;4.78;72.90
53715;BME280;39608;55.630;37.864;2023-03-12T03:21:21;96886.72;;;4.85;72.84
53715;BME280;39608;55.630;37.864;2023-03-12T03:26:24;96882.75;;;4.91;72.58
53715;BME280;39608;55.630;37.864;2023-03-12T03:31:26;96878.16;;;4.92;72.38
53715;BME280;39608;55.630;37.864;2023-03-12T03:36:28;96865.84;;;4.91;72.27
53715;BME280;39608;55.630;37.864;2023-03-12T03:41:32;96871.19;;;5.00;72.64
53715;BME280;39608;55.630;37.864;2023-03-12T03:46:34;96849.22;;;4.97;73.10
53715;BME280;39608;55.630;37.864;2023-03-12T03:51:36;96838.97;;;5.00;72.76
53715;BME280;39608;55.630;37.864;2023-03-12T03:56:40;96827.06;;;5.09;73.63
53715;BME280;39608;55.630;37.864;2023-03-12T04:01:42;96820.88;;;5.09;73.10
53715;BME280;39608;55.630;37.864;2023-03-12T04:06:44;96806.78;;;5.12;72.84
53715;BME280;39608;55.630;37.864;2023-03-12T04:11:47;96806.59;;;5.17;73.09
53715;BME280;39608;55.630;37.864;2023-03-12T04:16:49;96799.34;;;5.18;73.41
53715;BME280;39608;55.630;37.864;2023-03-12T04:21:51;96783.81;;;5.23;73.07
53715;BME280;39608;55.630;37.864;2023-03-12T04:26:55;96770.19;;;5.28;73.25
53715;BME280;39608;55.630;37.864;2023-03-12T04:31:58;96774.13;;;5.31;73.37
53715;BME280;39608;55.630;37.864;2023-03-12T04:37:00;96757.22;;;5.30;73.67
53715;BME280;39608;55.630;37.864;2023-03-12T04:42:04;96754.59;;;5.43;73.68
53715;BME280;39608;55.630;37.864;2023-03-12T04:47:06;96749.66;;;5.45;73.19
53715;BME280;39608;55.630;37.864;2023-03-12T04:52:08;96750.25;;;5.51;73.18
53715;BME280;39608;55.630;37.864;2023-03-12T04:57:11;96734.50;;;5.61;73.29
53715;BME280;39608;55.630;37.864;2023-03-12T05:02:13;96728.00;;;5.62;73.25
53715;BME280;39608;55.630;37.864;2023-03-12T05:07:15;96719.84;;;5.71;73.43
53715;BME280;39608;55.630;37.864;2023-03-12T05:12:19;96715.16;;;5.80;73.51
53715;BME280;39608;55.630;37.864;2023-03-12T05:17:21;96713.28;;;5.81;73.55
53715;BME280;39608;55.630;37.864;2023-03-12T05:22:23;96709.47;;;5.82;73.81
53715;BME280;39608;55.630;37.864;2023-03-12T05:27:26;96697.94;;;5.94;73.53
53715;BME280;39608;55.630;37.864;2023-03-12T05:32:28;96699.19;;;5.96;73.63
53715;BME280;39608;55.630;37.864;2023-03-12T05:37:30;96683.97;;;6.01;73.92
53715;BME280;39608;55.630;37.864;2023-03-12T05:42:33;96680.16;;;6.14;73.42
53715;BME280;39608;55.630;37.864;2023-03-12T05:47:35;96672.91;;;6.14;73.80
53715;BME280;39608;55.630;37.864;2023-03-12T05:52:37;96663.81;;;6.19;73.70
53715;BME280;39608;55.630;37.864;2023-03-12T05:57:40;96653.25;;;6.26;73.70
53715;BME280;39608;55.630;37.864;2023-03-12T06:02:43;96643.41;;;6.30;73.77
53715;BME280;39608;55.630;37.864;2023-03-12T06:07:45;96655.72;;;6.31;74.29
53715;BME280;39608;55.630;37.864;2023-03-12T06:12:48;96645.53;;;6.37;74.45
53715;BME280;39608;55.630;37.864;2023-03-12T06:17:50;96650.69;;;6.42;74.20
53715;BME280;39608;55.630;37.864;2023-03-12T06:22:52;96651.00;;;6.41;74.22
53715;BME280;39608;55.630;37.864;2023-03-12T06:27:55;96626.22;;;6.47;73.98
53715;BME280;39608;55.630;37.864;2023-03-12T06:32:57;96634.75;;;6.49;74.10
53715;BME280;39608;55.630;37.864;2023-03-12T06:37:59;96640.22;;;6.53;74.36
53715;BME280;39608;55.630;37.864;2023-03-12T06:43:03;96616.53;;;6.59;74.22
53715;BME280;39608;55.630;37.864;2023-03-12T06:48:04;96608.56;;;6.62;74.38
53715;BME280;39608;55.630;37.864;2023-03-12T06:53:06;96609.34;;;6.63;74.18
53715;BME280;39608;55.630;37.864;2023-03-12T06:58:10;96604.84;;;6.67;74.47
53715;BME280;39608;55.630;37.864;2023-03-12T07:03:12;96591.50;;;6.71;74.48
53715;BME280;39608;55.630;37.864;2023-03-12T07:08:15;96582.31;;;6.72;74.42
53715;BME280;39608;55.630;37.864;2023-03-12T07:13:19;96584.84;;;6.80;74.43
53715;BME280;39608;55.630;37.864;2023-03-12T07:18:21;96568.34;;;6.82;74.64
53715;BME280;39608;55.630;37.864;2023-03-12T07:23:23;96554.88;;;6.82;74.44
53715;BME280;39608;55.630;37.864;2023-03-12T07:28:27;96558.44;;;6.86;74.55
53715;BME280;39608;55.630;37.864;2023-03-12T07:33:29;96546.34;;;6.80;74.39
53715;BME280;39608;55.630;37.864;2023-03-12T07:38:31;96539.06;;;6.80;74.36
53715;BME280;39608;55.630;37.864;2023-03-12T07:43:34;96531.88;;;6.84;74.58
53715;BME280;39608;55.630;37.864;2023-03-12T07:48:36;96528.81;;;6.86;74.66
53715;BME280;39608;55.630;37.864;2023-03-12T07:53:39;96522.75;;;6.89;74.42
53715;BME280;39608;55.630;37.864;2023-03-12T07:58:42;96504.75;;;6.93;74.76
53715;BME280;39608;55.630;37.864;2023-03-12T08:03:44;96501.97;;;6.90;74.73
53715;BME280;39608;55.630;37.864;2023-03-12T08:08:46;96508.16;;;6.90;74.69
53715;BME280;39608;55.630;37.864;2023-03-12T08:13:49;96493.22;;;6.93;74.84
53715;BME280;39608;55.630;37.864;2023-03-12T08:18:51;96490.00;;;6.87;74.92
53715;BME280;39608;55.630;37.864;2023-03-12T08:23:53;96479.66;;;6.89;74.86
53715;BME280;39608;55.630;37.864;2023-03-12T08:28:57;96480.53;;;6.93;75.11
53715;BME280;39608;55.630;37.864;2023-03-12T08:33:59;96458.97;;;6.93;74.96
53715;BME280;39608;55.630;37.864;2023-03-12T08:39:02;96454.03;;;6.95;74.99
53715;BME280;39608;55.630;37.864;2023-03-12T08:44:05;96426.81;;;7.00;75.18
53715;BME280;39608;55.630;37.864;2023-03-12T08:49:08;96425.25;;;6.99;75.07
53715;BME280;39608;55.630;37.864;2023-03-12T08:54:10;96418.03;;;7.03;74.97
53715;BME280;39608;55.630;37.864;2023-03-12T08:59:13;96420.91;;;7.11;75.26
53715;BME280;39608;55.630;37.864;2023-03-12T09:04:15;96420.06;;;7.07;75.08
53715;BME280;39608;55.630;37.864;2023-03-12T09:09:17;96413.09;;;7.06;75.01
53715;BME280;39608;55.630;37.864;2023-03-12T09:14:21;96398.91;;;7.09;75.14
53715;BME280;39608;55.630;37.864;2023-03-12T09:19:23;96389.72;;;7.10;75.14
53715;BME280;39608;55.630;37.864;2023-03-12T09:24:25;96382.84;;;7.12;75.02
53715;BME280;39608;55.630;37.864;2023-03-12T09:29:28;96383.97;;;7.11;75.17
53715;BME280;39608;55.630;37.864;2023-03-12T09:34:30;96373.78;;;7.05;75.20
53715;BME280;39608;55.630;37.864;2023-03-12T09:39:34;96347.97;;;7.03;75.31
53715;BME280;39608;55.630;37.864;2023-03-12T09:44:39;96350.50;;;7.12;75.42
53715;BME280;39608;55.630;37.864;2023-03-12T09:49:46;96344.25;;;7.08;75.15
53715;BME280;39608;55.630;37.864;2023-03-12T09:54:54;96334.25;;;7.09;75.07
53715;BME280;39608;55.630;37.864;2023-03-12T10:00:01;96321.47;;;7.06;75.23
53715;BME280;39608;55.630;37.864;2023-03-12T10:05:09;96320.34;;;7.07;75.07
53715;BME280;39608;55.630;37.864;2023-03-12T10:10:32;96294.53;;;7.06;75.17
53715;BME280;39608;55.630;37.864;2023-03-12T10:15:45;96287.56;;;7.05;75.31
53715;BME280;39608;55.630;37.864;2023-03-12T10:21:02;96287.72;;;7.12;75.26
53715;BME280;39608;55.630;37.864;2023-03-12T10:26:09;96279.50;;;7.05;75.31
53715;BME280;39608;55.630;37.864;2023-03-12T10:31:20;96272.63;;;7.07;75.57
53715;BME280;39608;55.630;37.864;2023-03-12T10:36:28;96250.97;;;7.03;75.39
53715;BME280;39608;55.630;37.864;2023-03-12T10:41:35;96232.31;;;7.11;75.37
53715;BME280;39608;55.630;37.864;2023-03-12T10:47:02;96251.09;;;7.27;75.23
53715;BME280;39608;55.630;37.864;2023-03-12T10:52:14;96232.00;;;7.16;75.11
53715;BME280;39608;55.630;37.864;2023-03-12T10:57:18;96236.19;;;7.13;75.28
53715;BME280;39608;55.630;37.864;2023-03-12T11:02:33;96235.13;;;7.18;75.12
53715;BME280;39608;55.630;37.864;2023-03-12T11:07:35;96232.84;;;7.00;75.30
53715;BME280;39608;55.630;37.864;2023-03-12T11:12:38;96223.91;;;6.96;75.27
53715;BME280;39608;55.630;37.864;2023-03-12T11:17:42;96223.84;;;6.93;75.46
53715;BME280;39608;55.630;37.864;2023-03-12T11:22:44;96207.59;;;6.89;75.24
53715;BME280;39608;55.630;37.864;2023-03-12T11:27:48;96214.03;;;6.84;75.31
53715;BME280;39608;55.630;37.864;2023-03-12T11:32:53;96223.84;;;6.77;75.25
53715;BME280;39608;55.630;37.864;2023-03-12T11:38:02;96217.19;;;6.71;75.23
53715;BME280;39608;55.630;37.864;2023-03-12T11:43:20;96188.69;;;6.70;75.47
53715;BME280;39608;55.630;37.864;2023-03-12T11:48:33;96185.13;;;6.65;75.55
53715;BME280;39608;55.630;37.864;2023-03-12T11:53:58;96189.00;;;6.84;75.68
53715;BME280;39608;55.630;37.864;2023-03-12T11:59:23;96179.94;;;6.92;75.38
53715;BME280;39608;55.630;37.864;2023-03-12T12:04:48;96181.22;;;6.98;75.48
53715;BME280;39608;55.630;37.864;2023-03-12T12:10:01;96175.13;;;7.01;75.55
53715;BME280;39608;55.630;37.864;2023-03-12T12:15:14;96175.13;;;7.01;75.32
53715;BME280;39608;55.630;37.864;2023-03-12T12:20:29;96173.00;;;6.91;75.50
53715;BME280;39608;55.630;37.864;2023-03-12T12:26:08;96267.69;;;6.93;74.98
53715;BME280;39608;55.630;37.864;2023-03-12T12:31:21;96261.22;;;5.98;73.40
53715;BME280;39608;55.630;37.864;2023-03-12T12:36:35;96283.78;;;5.25;74.16
53715;BME280;39608;55.630;37.864;2023-03-12T12:41:41;96295.13;;;4.81;74.07
53715;BME280;39608;55.630;37.864;2023-03-12T12:46:48;96324.97;;;4.42;73.88
53715;BME280;39608;55.630;37.864;2023-03-12T12:51:57;96329.00;;;4.03;74.07
53715;BME280;39608;55.630;37.864;2023-03-12T12:57:06;96350.13;;;3.71;73.96
53715;BME280;39608;55.630;37.864;2023-03-12T13:02:16;96343.44;;;3.35;74.02
53715;BME280;39608;55.630;37.864;2023-03-12T13:07:34;96380.38;;;3.20;74.12
53715;BME280;39608;55.630;37.864;2023-03-12T13:12:42;96368.91;;;2.90;74.37
53715;BME280;39608;55.630;37.864;2023-03-12T13:18:04;96379.81;;;2.76;74.20
53715;BME280;39608;55.630;37.864;2023-03-12T13:23:22;96402.03;;;2.68;73.89
53715;BME280;39608;55.630;37.864;2023-03-12T13:28:36;96409.50;;;2.53;74.03
53715;BME280;39608;55.630;37.864;2023-03-12T13:33:41;96428.88;;;2.33;73.44
53715;BME280;39608;55.630;37.864;2023-03-12T13:38:55;96449.31;;;2.11;73.39
53715;BME280;39608;55.630;37.864;2023-03-12T13:43:57;96454.38;;;1.86;73.56
53715;BME280;39608;55.630;37.864;2023-03-12T13:49:04;96456.22;;;1.68;73.51
53715;BME280;39608;55.630;37.864;2023-03-12T13:54:16;96477.44;;;1.65;73.73
53715;BME280;39608;55.630;37.864;2023-03-12T13:59:21;96494.50;;;1.46;73.44
53715;BME280;39608;55.630;37.864;2023-03-12T14:04:29;96484.34;;;1.08;73.51
53715;BME280;39608;55.630;37.864;2023-03-12T14:09:39;96533.97;;;1.09;73.38
53715;BME280;39608;55.630;37.864;2023-03-12T14:15:02;96533.00;;;0.82;73.16
53715;BME280;39608;55.630;37.864;2023-03-12T14:20:11;96564.50;;;0.72;73.21
53715;BME280;39608;55.630;37.864;2023-03-12T14:25:22;96576.00;;;0.58;73.55
53715;BME280;39608;55.630;37.864;2023-03-12T14:30:38;96604.53;;;0.58;73.32
53715;BME280;39608;55.630;37.864;2023-03-12T14:35:45;96598.44;;;0.43;73.44
53715;BME280;39608;55.630;37.864;2023-03-12T14:40:54;96585.97;;;0.30;73.01
53715;BME280;39608;55.630;37.864;2023-03-12T14:46:03;96632.63;;;0.41;73.40
53715;BME280;39608;55.630;37.864;2023-03-12T14:51:06;96658.59;;;0.36;72.72
53715;BME280;39608;55.630;37.864;2023-03-12T14:56:12;96668.28;;;0.31;72.93
53715;BME280;39608;55.630;37.864;2023-03-12T15:01:18;96688.94;;;0.26;73.15
53715;BME280;39608;55.630;37.864;2023-03-12T15:06:26;96695.84;;;0.13;72.95
53715;BME280;39608;55.630;37.864;2023-03-12T15:11:32;96698.69;;;0.16;72.94
53715;BME280;39608;55.630;37.864;2023-03-12T15:16:35;96701.19;;;0.13;72.48
53715;BME280;39608;55.630;37.864;2023-03-12T15:21:38;96714.97;;;0.01;72.69
53715;BME280;39608;55.630;37.864;2023-03-12T15:26:42;96752.28;;;0.01;72.76
53715;BME280;39608;55.630;37.864;2023-03-12T15:31:46;96786.38;;;-0.15;72.28
53715;BME280;39608;55.630;37.864;2023-03-12T15:36:48;96817.25;;;-0.47;72.46
53715;BME280;39608;55.630;37.864;2023-03-12T15:41:53;96853.03;;;-0.53;72.75
53715;BME280;39608;55.630;37.864;2023-03-12T15:47:02;96857.03;;;-0.75;72.35
53715;BME280;39608;55.630;37.864;2023-03-12T15:52:25;96914.16;;;-0.91;72.23
53715;BME280;39608;55.630;37.864;2023-03-12T15:57:28;96942.44;;;-1.25;72.27
53715;BME280;39608;55.630;37.864;2023-03-12T16:02:34;96952.72;;;-1.42;72.97
53715;BME280;39608;55.630;37.864;2023-03-12T16:07:38;96959.78;;;-1.57;72.51
53715;BME280;39608;55.630;37.864;2023-03-12T16:12:43;96982.41;;;-1.64;73.21
53715;BME280;39608;55.630;37.864;2023-03-12T16:17:47;97002.41;;;-1.72;72.56
53715;BME280;39608;55.630;37.864;2023-03-12T16:22:51;97019.91;;;-1.66;72.53
53715;BME280;39608;55.630;37.864;2023-03-12T16:27:56;97020.97;;;-1.67;72.54
53715;BME280;39608;55.630;37.864;2023-03-12T16:33:01;97057.56;;;-1.53;72.34
53715;BME280;39608;55.630;37.864;2023-03-12T16:38:04;97073.50;;;-1.53;72.57
53715;BME280;39608;55.630;37.864;2023-03-12T16:43:16;97105.88;;;-1.46;72.64
53715;BME280;39608;55.630;37.864;2023-03-12T16:48:20;97138.09;;;-1.58;72.06
53715;BME280;39608;55.630;37.864;2023-03-12T16:53:24;97136.28;;;-1.68;72.67
53715;BME280;39608;55.630;37.864;2023-03-12T16:58:28;97170.06;;;-1.74;72.97
53715;BME280;39608;55.630;37.864;2023-03-12T17:03:33;97164.28;;;-1.86;72.04
53715;BME280;39608;55.630;37.864;2023-03-12T17:08:35;97215.00;;;-1.82;72.34
53715;BME280;39608;55.630;37.864;2023-03-12T17:13:39;97233.31;;;-1.76;72.18
53715;BME280;39608;55.630;37.864;2023-03-12T17:18:42;97240.50;;;-1.76;72.36
53715;BME280;39608;55.630;37.864;2023-03-12T17:23:45;97246.59;;;-1.76;72.22
53715;BME280;39608;55.630;37.864;2023-03-12T17:28:51;97257.72;;;-1.74;72.20
53715;BME280;39608;55.630;37.864;2023-03-12T17:33:53;97286.44;;;-1.70;72.22
53715;BME280;39608;55.630;37.864;2023-03-12T17:38:55;97287.25;;;-1.80;71.88
53715;BME280;39608;55.630;37.864;2023-03-12T17:43:59;97321.50;;;-1.68;72.21
53715;BME280;39608;55.630;37.864;2023-03-12T17:49:03;97322.03;;;-1.66;71.84
53715;BME280;39608;55.630;37.864;2023-03-12T17:54:05;97348.34;;;-1.65;72.17
53715;BME280;39608;55.630;37.864;2023-03-12T17:59:11;97327.59;;;-1.63;72.09
53715;BME280;39608;55.630;37.864;2023-03-12T18:04:14;97333.72;;;-1.67;72.66
53715;BME280;39608;55.630;37.864;2023-03-12T18:09:16;97345.13;;;-1.67;72.07
53715;BME280;39608;55.630;37.864;2023-03-12T18:14:23;97372.00;;;-1.68;71.91
53715;BME280;39608;55.630;37.864;2023-03-12T18:19:26;97421.94;;;-1.81;71.89
53715;BME280;39608;55.630;37.864;2023-03-12T18:24:28;97426.47;;;-1.76;71.79
53715;BME280;39608;55.630;37.864;2023-03-12T18:29:32;97435.25;;;-1.70;72.09
53715;BME280;39608;55.630;37.864;2023-03-12T18:34:36;97422.75;;;-1.70;71.92
53715;BME280;39608;55.630;37.864;2023-03-12T18:39:43;97445.06;;;-1.56;71.96
53715;BME280;39608;55.630;37.864;2023-03-12T18:44:51;97470.03;;;-1.51;71.70
53715;BME280;39608;55.630;37.864;2023-03-12T18:49:59;97493.97;;;-1.51;71.16
53715;BME280;39608;55.630;37.864;2023-03-12T18:55:01;97493.44;;;-1.53;71.14
53715;BME280;39608;55.630;37.864;2023-03-12T19:00:06;97513.63;;;-1.47;70.80
53715;BME280;39608;55.630;37.864;2023-03-12T19:05:12;97562.31;;;-1.47;70.50
53715;BME280;39608;55.630;37.864;2023-03-12T19:10:15;97570.28;;;-1.47;70.13
53715;BME280;39608;55.630;37.864;2023-03-12T19:15:20;97582.22;;;-1.49;69.82
53715;BME280;39608;55.630;37.864;2023-03-12T19:20:23;97581.44;;;-1.55;70.22
53715;BME280;39608;55.630;37.864;2023-03-12T19:25:25;97606.66;;;-1.63;70.26
53715;BME280;39608;55.630;37.864;2023-03-12T19:30:29;97608.50;;;-1.68;70.20
53715;BME280;39608;55.630;37.864;2023-03-12T19:35:34;97619.66;;;-1.72;70.43
53715;BME280;39608;55.630;37.864;2023-03-12T19:40:38;97625.22;;;-1.73;70.25
53715;BME280;39608;55.630;37.864;2023-03-12T19:45:41;97635.88;;;-1.73;70.00
53715;BME280;39608;55.630;37.864;2023-03-12T19:50:43;97651.78;;;-1.78;69.00
53715;BME280;39608;55.630;37.864;2023-03-12T19:55:46;97661.88;;;-1.75;69.52
53715;BME280;39608;55.630;37.864;2023-03-12T20:00:49;97690.06;;;-1.74;69.85
53715;BME280;39608;55.630;37.864;2023-03-12T20:05:52;97683.13;;;-1.80;69.77
53715;BME280;39608;55.630;37.864;2023-03-12T20:11:00;97685.75;;;-1.85;69.82
53715;BME280;39608;55.630;37.864;2023-03-12T20:16:05;97686.25;;;-1.94;69.48
53715;BME280;39608;55.630;37.864;2023-03-12T20:21:07;97708.81;;;-1.96;69.37
53715;BME280;39608;55.630;37.864;2023-03-12T20:26:09;97704.28;;;-2.01;69.01
53715;BME280;39608;55.630;37.864;2023-03-12T20:31:15;97725.78;;;-2.02;68.25
53715;BME280;39608;55.630;37.864;2023-03-12T20:36:17;97727.63;;;-2.08;69.27
53715;BME280;39608;55.630;37.864;2023-03-12T20:41:19;97724.91;;;-2.13;69.19
53715;BME280;39608;55.630;37.864;2023-03-12T20:46:23;97744.56;;;-2.14;69.12
53715;BME280;39608;55.630;37.864;2023-03-12T20:51:25;97754.09;;;-2.18;68.53
53715;BME280;39608;55.630;37.864;2023-03-12T20:56:27;97756.50;;;-2.17;68.77
53715;BME280;39608;55.630;37.864;2023-03-12T21:01:30;97769.22;;;-2.19;68.84
53715;BME280;39608;55.630;37.864;2023-03-12T21:06:32;97780.88;;;-2.25;68.95
53715;BME280;39608;55.630;37.864;2023-03-12T21:11:34;97787.50;;;-2.28;68.78
53715;BME280;39608;55.630;37.864;2023-03-12T21:16:39;97805.56;;;-2.25;68.79
53715;BME280;39608;55.630;37.864;2023-03-12T21:21:41;97806.09;;;-2.28;68.37
53715;BME280;39608;55.630;37.864;2023-03-12T21:26:44;97795.34;;;-2.43;68.30
53715;BME280;39608;55.630;37.864;2023-03-12T21:31:47;97822.47;;;-2.36;68.63
53715;BME280;39608;55.630;37.864;2023-03-12T21:36:53;97825.31;;;-2.43;68.20
53715;BME280;39608;55.630;37.864;2023-03-12T21:41:56;97827.94;;;-2.48;68.69
53715;BME280;39608;55.630;37.864;2023-03-12T21:47:01;97845.66;;;-2.53;68.22
53715;BME280;39608;55.630;37.864;2023-03-12T21:52:04;97836.06;;;-2.60;68.31
53715;BME280;39608;55.630;37.864;2023-03-12T21:57:06;97841.81;;;-2.68;68.08
53715;BME280;39608;55.630;37.864;2023-03-12T22:02:11;97870.75;;;-2.66;68.09
53715;BME280;39608;55.630;37.864;2023-03-12T22:07:13;97879.38;;;-2.76;68.17
53715;BME280;39608;55.630;37.864;2023-03-12T22:12:15;97887.91;;;-2.74;67.88
53715;BME280;39608;55.630;37.864;2023-03-12T22:17:19;97905.91;;;-2.76;67.73
53715;BME280;39608;55.630;37.864;2023-03-12T22:22:21;97917.81;;;-2.79;68.04
53715;BME280;39608;55.630;37.864;2023-03-12T22:27:23;97916.97;;;-2.84;68.09
53715;BME280;39608;55.630;37.864;2023-03-12T22:32:26;97940.84;;;-2.84;67.48
53715;BME280;39608;55.630;37.864;2023-03-12T22:37:28;97938.13;;;-2.89;67.97
53715;BME280;39608;55.630;37.864;2023-03-12T22:42:31;97956.94;;;-2.91;67.26
53715;BME280;39608;55.630;37.864;2023-03-12T22:47:34;97974.44;;;-2.90;67.58
53715;BME280;39608;55.630;37.864;2023-03-12T22:52:37;97971.97;;;-2.97;67.41
53715;BME280;39608;55.630;37.864;2023-03-12T22:57:39;97965.78;;;-3.02;67.49
53715;BME280;39608;55.630;37.864;2023-03-12T23:02:43;97992.31;;;-3.02;67.64
53715;BME280;39608;55.630;37.864;2023-03-12T23:07:45;97992.50;;;-3.09;67.35
53715;BME280;39608;55.630;37.864;2023-03-12T23:12:47;98003.03;;;-3.14;67.60
53715;BME280;39608;55.630;37.864;2023-03-12T23:17:50;98006.72;;;-3.15;67.53
53715;BME280;39608;55.630;37.864;2023-03-12T23:22:52;98016.28;;;-3.14;67.59
53715;BME280;39608;55.630;37.864;2023-03-12T23:27:54;98020.84;;;-3.10;67.33
53715;BME280;39608;55.630;37.864;2023-03-12T23:32:57;98027.03;;;-3.04;67.52
53715;BME280;39608;55.630;37.864;2023-03-12T23:37:59;98033.16;;;-3.03;67.21
53715;BME280;39608;55.630;37.864;2023-03-12T23:43:04;98036.75;;;-2.93;67.16
53715;BME280;39608;55.630;37.864;2023-03-12T23:48:08;98053.00;;;-2.89;67.20
53715;BME280;39608;55.630;37.864;2023-03-12T23:53:10;98056.19;;;-2.87;67.08
53715;BME280;39608;55.630;37.864;2023-03-12T23:58:12;98064.16;;;-2.87;66.86
